sensor_id;sensor_type;location;lat;lon;timestamp;P1;durP1;ratioP1;P2;durP2;ratioP2
20758;SDS011;10539;53.686;9.158;2022-10-31T00:02:23;45.30;;;22.70;;
20758;SDS011;10539;53.686;9.158;2022-10-31T00:04:49;43.87;;;23.23;;
20758;SDS011;10539;53.686;9.158;2022-10-31T00:07:15;49.83;;;24.00;;
20758;SDS011;10539;53.686;9.158;2022-10-31T00:09:41;48.07;;;24.10;;
20758;SDS011;10539;53.686;9.158;2022-10-31T00:12:06;48.97;;;23.80;;
20758;SDS011;10539;53.686;9.158;2022-10-31T00:14:32;50.37;;;22.97;;
20758;SDS011;10539;53.686;9.158;2022-10-31T00:16:58;51.87;;;24.57;;
20758;SDS011;10539;53.686;9.158;2022-10-31T00:19:24;53.30;;;24.23;;
20758;SDS011;10539;53.686;9.158;2022-10-31T00:21:51;51.43;;;23.97;;
20758;SDS011;10539;53.686;9.158;2022-10-31T00:24:17;51.13;;;24.80;;
20758;SDS011;10539;53.686;9.158;2022-10-31T00:26:43;50.93;;;24.43;;
20758;SDS011;10539;53.686;9.158;2022-10-31T00:29:08;59.37;;;24.77;;
20758;SDS011;10539;53.686;9.158;2022-10-31T00:31:35;54.10;;;25.40;;
20758;SDS011;10539;53.686;9.158;2022-10-31T00:34:01;56.57;;;25.07;;
20758;SDS011;10539;53.686;9.158;2022-10-31T00:36:28;50.87;;;23.67;;
20758;SDS011;10539;53.686;9.158;2022-10-31T00:38:54;52.10;;;24.33;;
20758;SDS011;10539;53.686;9.158;2022-10-31T00:41:20;54.93;;;24.83;;
20758;SDS011;10539;53.686;9.158;2022-10-31T00:43:45;48.53;;;24.83;;
20758;SDS011;10539;53.686;9.158;2022-10-31T00:46:12;51.73;;;24.50;;
20758;SDS011;10539;53.686;9.158;2022-10-31T00:48:38;53.83;;;25.17;;
20758;SDS011;10539;53.686;9.158;2022-10-31T00:51:04;58.50;;;26.80;;
20758;SDS011;10539;53.686;9.158;2022-10-31T00:53:30;65.07;;;26.53;;
20758;SDS011;10539;53.686;9.158;2022-10-31T00:55:56;55.57;;;25.10;;
20758;SDS011;10539;53.686;9.158;2022-10-31T00:58:22;62.47;;;26.87;;
20758;SDS011;10539;53.686;9.158;2022-10-31T01:00:48;60.97;;;26.27;;
20758;SDS011;10539;53.686;9.158;2022-10-31T01:03:21;67.50;;;25.40;;
20758;SDS011;10539;53.686;9.158;2022-10-31T01:06:08;60.30;;;25.30;;
20758;SDS011;10539;53.686;9.158;2022-10-31T01:08:35;60.80;;;27.13;;
20758;SDS011;10539;53.686;9.158;2022-10-31T01:11:06;66.97;;;26.77;;
20758;SDS011;10539;53.686;9.158;2022-10-31T01:13:35;56.27;;;25.70;;
20758;SDS011;10539;53.686;9.158;2022-10-31T01:16:01;70.10;;;26.73;;
20758;SDS011;10539;53.686;9.158;2022-10-31T01:18:28;69.70;;;26.80;;
20758;SDS011;10539;53.686;9.158;2022-10-31T01:20:58;70.43;;;26.90;;
20758;SDS011;10539;53.686;9.158;2022-10-31T01:23:24;67.63;;;26.90;;
20758;SDS011;10539;53.686;9.158;2022-10-31T01:25:58;68.77;;;27.27;;
20758;SDS011;10539;53.686;9.158;2022-10-31T01:28:35;69.30;;;27.77;;
20758;SDS011;10539;53.686;9.158;2022-10-31T01:31:03;64.97;;;26.93;;
20758;SDS011;10539;53.686;9.158;2022-10-31T01:33:31;64.57;;;28.40;;
20758;SDS011;10539;53.686;9.158;2022-10-31T01:35:57;68.57;;;26.97;;
20758;SDS011;10539;53.686;9.158;2022-10-31T01:38:23;72.83;;;27.90;;
20758;SDS011;10539;53.686;9.158;2022-10-31T01:40:49;70.13;;;26.73;;
20758;SDS011;10539;53.686;9.158;2022-10-31T01:43:15;67.33;;;28.53;;
20758;SDS011;10539;53.686;9.158;2022-10-31T01:45:41;64.67;;;25.70;;
20758;SDS011;10539;53.686;9.158;2022-10-31T01:48:15;62.93;;;26.50;;
20758;SDS011;10539;53.686;9.158;2022-10-31T01:50:44;61.07;;;24.43;;
20758;SDS011;10539;53.686;9.158;2022-10-31T01:53:13;56.43;;;21.53;;
20758;SDS011;10539;53.686;9.158;2022-10-31T01:55:40;58.37;;;22.37;;
20758;SDS011;10539;53.686;9.158;2022-10-31T01:58:28;60.43;;;23.10;;
20758;SDS011;10539;53.686;9.158;2022-10-31T02:00:58;59.67;;;23.60;;
20758;SDS011;10539;53.686;9.158;2022-10-31T02:03:25;67.63;;;24.57;;
20758;SDS011;10539;53.686;9.158;2022-10-31T02:05:54;59.07;;;23.37;;
20758;SDS011;10539;53.686;9.158;2022-10-31T02:10:58;60.00;;;25.27;;
20758;SDS011;10539;53.686;9.158;2022-10-31T02:13:25;63.77;;;24.40;;
20758;SDS011;10539;53.686;9.158;2022-10-31T02:15:53;70.67;;;25.73;;
20758;SDS011;10539;53.686;9.158;2022-10-31T02:18:22;54.87;;;22.47;;
20758;SDS011;10539;53.686;9.158;2022-10-31T02:31:36;72.73;;;26.13;;
20758;SDS011;10539;53.686;9.158;2022-10-31T02:42:17;77.57;;;24.77;;
20758;SDS011;10539;53.686;9.158;2022-10-31T02:47:22;106.27;;;26.43;;
20758;SDS011;10539;53.686;9.158;2022-10-31T02:52:28;135.67;;;26.97;;
20758;SDS011;10539;53.686;9.158;2022-10-31T02:54:57;109.80;;;26.13;;
20758;SDS011;10539;53.686;9.158;2022-10-31T02:57:24;89.00;;;27.83;;
20758;SDS011;10539;53.686;9.158;2022-10-31T02:59:56;94.27;;;25.90;;
20758;SDS011;10539;53.686;9.158;2022-10-31T03:05:23;99.03;;;25.77;;
20758;SDS011;10539;53.686;9.158;2022-10-31T03:08:11;108.20;;;27.70;;
20758;SDS011;10539;53.686;9.158;2022-10-31T03:13:34;104.23;;;26.80;;
20758;SDS011;10539;53.686;9.158;2022-10-31T03:16:17;91.60;;;26.77;;
20758;SDS011;10539;53.686;9.158;2022-10-31T03:21:42;100.43;;;27.17;;
20758;SDS011;10539;53.686;9.158;2022-10-31T03:24:14;90.03;;;26.60;;
20758;SDS011;10539;53.686;9.158;2022-10-31T03:26:41;94.80;;;26.97;;
20758;SDS011;10539;53.686;9.158;2022-10-31T03:29:13;86.47;;;24.80;;
20758;SDS011;10539;53.686;9.158;2022-10-31T03:31:53;84.50;;;26.60;;
20758;SDS011;10539;53.686;9.158;2022-10-31T03:34:24;89.17;;;26.17;;
20758;SDS011;10539;53.686;9.158;2022-10-31T03:36:51;84.80;;;26.43;;
20758;SDS011;10539;53.686;9.158;2022-10-31T03:39:21;91.20;;;27.30;;
20758;SDS011;10539;53.686;9.158;2022-10-31T03:44:35;98.67;;;26.10;;
20758;SDS011;10539;53.686;9.158;2022-10-31T03:47:02;102.03;;;28.57;;
20758;SDS011;10539;53.686;9.158;2022-10-31T03:49:29;116.80;;;28.33;;
20758;SDS011;10539;53.686;9.158;2022-10-31T03:57:14;101.97;;;28.00;;
20758;SDS011;10539;53.686;9.158;2022-10-31T03:59:47;105.67;;;28.30;;
20758;SDS011;10539;53.686;9.158;2022-10-31T04:02:21;109.43;;;29.03;;
20758;SDS011;10539;53.686;9.158;2022-10-31T04:04:51;92.93;;;28.60;;
20758;SDS011;10539;53.686;9.158;2022-10-31T04:07:17;103.90;;;28.90;;
20758;SDS011;10539;53.686;9.158;2022-10-31T04:09:45;92.63;;;27.33;;
20758;SDS011;10539;53.686;9.158;2022-10-31T04:12:13;86.93;;;27.13;;
20758;SDS011;10539;53.686;9.158;2022-10-31T04:14:41;90.50;;;27.17;;
20758;SDS011;10539;53.686;9.158;2022-10-31T04:17:11;100.13;;;26.83;;
20758;SDS011;10539;53.686;9.158;2022-10-31T04:19:40;125.77;;;28.33;;
20758;SDS011;10539;53.686;9.158;2022-10-31T04:22:06;138.40;;;28.30;;
20758;SDS011;10539;53.686;9.158;2022-10-31T04:24:32;80.67;;;26.10;;
20758;SDS011;10539;53.686;9.158;2022-10-31T04:26:58;130.93;;;28.03;;
20758;SDS011;10539;53.686;9.158;2022-10-31T04:29:23;84.47;;;25.93;;
20758;SDS011;10539;53.686;9.158;2022-10-31T04:31:49;144.43;;;28.10;;
20758;SDS011;10539;53.686;9.158;2022-10-31T04:34:15;121.40;;;25.90;;
20758;SDS011;10539;53.686;9.158;2022-10-31T04:36:41;153.43;;;27.23;;
20758;SDS011;10539;53.686;9.158;2022-10-31T04:39:06;138.03;;;26.13;;
20758;SDS011;10539;53.686;9.158;2022-10-31T04:41:32;464.53;;;38.23;;
20758;SDS011;10539;53.686;9.158;2022-10-31T04:43:57;153.10;;;27.37;;
20758;SDS011;10539;53.686;9.158;2022-10-31T04:46:23;77.23;;;23.27;;
20758;SDS011;10539;53.686;9.158;2022-10-31T04:48:49;105.90;;;24.70;;
20758;SDS011;10539;53.686;9.158;2022-10-31T04:51:14;79.37;;;24.30;;
20758;SDS011;10539;53.686;9.158;2022-10-31T04:53:40;96.80;;;23.67;;
20758;SDS011;10539;53.686;9.158;2022-10-31T04:56:06;229.83;;;23.90;;
20758;SDS011;10539;53.686;9.158;2022-10-31T04:58:32;375.20;;;22.80;;
20758;SDS011;10539;53.686;9.158;2022-10-31T05:00:57;288.90;;;21.37;;
20758;SDS011;10539;53.686;9.158;2022-10-31T05:03:23;321.63;;;23.43;;
20758;SDS011;10539;53.686;9.158;2022-10-31T05:05:49;306.50;;;23.97;;
20758;SDS011;10539;53.686;9.158;2022-10-31T05:08:15;320.47;;;23.97;;
20758;SDS011;10539;53.686;9.158;2022-10-31T05:10:41;277.50;;;24.67;;
20758;SDS011;10539;53.686;9.158;2022-10-31T05:13:06;347.50;;;26.27;;
20758;SDS011;10539;53.686;9.158;2022-10-31T05:15:32;189.63;;;21.93;;
20758;SDS011;10539;53.686;9.158;2022-10-31T05:17:58;498.70;;;30.57;;
20758;SDS011;10539;53.686;9.158;2022-10-31T05:20:25;444.30;;;28.83;;
20758;SDS011;10539;53.686;9.158;2022-10-31T05:22:54;496.83;;;32.97;;
20758;SDS011;10539;53.686;9.158;2022-10-31T05:25:22;698.50;;;36.70;;
20758;SDS011;10539;53.686;9.158;2022-10-31T05:27:51;339.53;;;31.00;;
20758;SDS011;10539;53.686;9.158;2022-10-31T05:30:19;371.17;;;28.93;;
20758;SDS011;10539;53.686;9.158;2022-10-31T05:32:48;513.63;;;29.97;;
20758;SDS011;10539;53.686;9.158;2022-10-31T05:35:16;278.50;;;22.73;;
20758;SDS011;10539;53.686;9.158;2022-10-31T05:37:46;330.57;;;24.17;;
20758;SDS011;10539;53.686;9.158;2022-10-31T05:40:13;331.70;;;24.00;;
20758;SDS011;10539;53.686;9.158;2022-10-31T05:42:40;351.97;;;25.00;;
20758;SDS011;10539;53.686;9.158;2022-10-31T05:45:11;399.73;;;25.13;;
20758;SDS011;10539;53.686;9.158;2022-10-31T05:47:38;309.13;;;22.37;;
20758;SDS011;10539;53.686;9.158;2022-10-31T05:50:05;456.17;;;27.60;;
20758;SDS011;10539;53.686;9.158;2022-10-31T05:52:31;421.57;;;26.77;;
20758;SDS011;10539;53.686;9.158;2022-10-31T05:54:57;303.43;;;23.27;;
20758;SDS011;10539;53.686;9.158;2022-10-31T05:57:23;260.43;;;21.33;;
20758;SDS011;10539;53.686;9.158;2022-10-31T05:59:49;250.27;;;21.97;;
20758;SDS011;10539;53.686;9.158;2022-10-31T06:02:18;209.90;;;21.90;;
20758;SDS011;10539;53.686;9.158;2022-10-31T06:04:44;144.77;;;21.23;;
20758;SDS011;10539;53.686;9.158;2022-10-31T06:07:10;178.33;;;22.80;;
20758;SDS011;10539;53.686;9.158;2022-10-31T06:09:36;131.37;;;22.37;;
20758;SDS011;10539;53.686;9.158;2022-10-31T06:12:02;106.17;;;23.50;;
20758;SDS011;10539;53.686;9.158;2022-10-31T06:14:29;127.47;;;22.43;;
20758;SDS011;10539;53.686;9.158;2022-10-31T06:16:55;111.70;;;22.77;;
20758;SDS011;10539;53.686;9.158;2022-10-31T06:19:21;104.70;;;20.90;;
20758;SDS011;10539;53.686;9.158;2022-10-31T06:21:46;137.53;;;21.50;;
20758;SDS011;10539;53.686;9.158;2022-10-31T06:24:12;171.27;;;23.63;;
20758;SDS011;10539;53.686;9.158;2022-10-31T06:26:40;158.43;;;25.13;;
20758;SDS011;10539;53.686;9.158;2022-10-31T06:29:06;185.60;;;25.63;;
20758;SDS011;10539;53.686;9.158;2022-10-31T06:31:32;195.70;;;25.57;;
20758;SDS011;10539;53.686;9.158;2022-10-31T06:33:57;180.37;;;26.13;;
20758;SDS011;10539;53.686;9.158;2022-10-31T06:36:23;261.87;;;26.53;;
20758;SDS011;10539;53.686;9.158;2022-10-31T06:38:49;163.63;;;25.37;;
20758;SDS011;10539;53.686;9.158;2022-10-31T06:41:15;168.20;;;26.83;;
20758;SDS011;10539;53.686;9.158;2022-10-31T06:43:40;199.03;;;26.47;;
20758;SDS011;10539;53.686;9.158;2022-10-31T06:46:06;143.00;;;24.43;;
20758;SDS011;10539;53.686;9.158;2022-10-31T06:48:32;161.60;;;25.90;;
20758;SDS011;10539;53.686;9.158;2022-10-31T06:50:58;184.17;;;25.93;;
20758;SDS011;10539;53.686;9.158;2022-10-31T06:53:25;169.73;;;25.37;;
20758;SDS011;10539;53.686;9.158;2022-10-31T06:55:51;171.37;;;24.57;;
20758;SDS011;10539;53.686;9.158;2022-10-31T06:58:17;187.77;;;26.57;;
20758;SDS011;10539;53.686;9.158;2022-10-31T07:00:43;129.20;;;23.00;;
20758;SDS011;10539;53.686;9.158;2022-10-31T07:03:10;181.37;;;26.20;;
20758;SDS011;10539;53.686;9.158;2022-10-31T07:05:37;163.53;;;24.83;;
20758;SDS011;10539;53.686;9.158;2022-10-31T07:08:04;103.43;;;22.70;;
20758;SDS011;10539;53.686;9.158;2022-10-31T07:10:32;109.87;;;23.23;;
20758;SDS011;10539;53.686;9.158;2022-10-31T07:13:00;136.20;;;24.00;;
20758;SDS011;10539;53.686;9.158;2022-10-31T07:15:28;153.67;;;26.03;;
20758;SDS011;10539;53.686;9.158;2022-10-31T07:18:03;152.17;;;24.23;;
20758;SDS011;10539;53.686;9.158;2022-10-31T07:20:30;125.97;;;23.63;;
20758;SDS011;10539;53.686;9.158;2022-10-31T07:22:57;110.97;;;22.30;;
20758;SDS011;10539;53.686;9.158;2022-10-31T07:25:23;114.57;;;21.50;;
20758;SDS011;10539;53.686;9.158;2022-10-31T07:27:49;138.70;;;22.40;;
20758;SDS011;10539;53.686;9.158;2022-10-31T07:30:15;98.67;;;20.07;;
20758;SDS011;10539;53.686;9.158;2022-10-31T07:32:45;81.53;;;21.53;;
20758;SDS011;10539;53.686;9.158;2022-10-31T07:35:13;120.70;;;21.67;;
20758;SDS011;10539;53.686;9.158;2022-10-31T07:37:43;135.03;;;22.13;;
20758;SDS011;10539;53.686;9.158;2022-10-31T07:40:09;130.30;;;22.47;;
20758;SDS011;10539;53.686;9.158;2022-10-31T07:42:41;109.17;;;20.70;;
20758;SDS011;10539;53.686;9.158;2022-10-31T07:45:09;106.73;;;22.13;;
20758;SDS011;10539;53.686;9.158;2022-10-31T07:50:10;111.60;;;21.20;;
20758;SDS011;10539;53.686;9.158;2022-10-31T07:52:37;145.57;;;22.33;;
20758;SDS011;10539;53.686;9.158;2022-10-31T07:55:03;112.70;;;21.30;;
20758;SDS011;10539;53.686;9.158;2022-10-31T07:57:30;98.60;;;20.57;;
20758;SDS011;10539;53.686;9.158;2022-10-31T07:59:56;132.70;;;22.60;;
20758;SDS011;10539;53.686;9.158;2022-10-31T08:02:23;111.80;;;21.43;;
20758;SDS011;10539;53.686;9.158;2022-10-31T08:04:49;117.70;;;19.93;;
20758;SDS011;10539;53.686;9.158;2022-10-31T08:07:15;95.63;;;21.03;;
20758;SDS011;10539;53.686;9.158;2022-10-31T08:09:41;145.33;;;23.83;;
20758;SDS011;10539;53.686;9.158;2022-10-31T08:12:07;104.07;;;22.23;;
20758;SDS011;10539;53.686;9.158;2022-10-31T08:14:33;97.90;;;22.23;;
20758;SDS011;10539;53.686;9.158;2022-10-31T08:16:58;102.57;;;23.40;;
20758;SDS011;10539;53.686;9.158;2022-10-31T08:19:24;98.87;;;22.17;;
20758;SDS011;10539;53.686;9.158;2022-10-31T08:21:50;103.73;;;22.20;;
20758;SDS011;10539;53.686;9.158;2022-10-31T08:24:17;78.33;;;21.60;;
20758;SDS011;10539;53.686;9.158;2022-10-31T08:26:43;94.93;;;24.07;;
20758;SDS011;10539;53.686;9.158;2022-10-31T08:29:09;82.40;;;20.90;;
20758;SDS011;10539;53.686;9.158;2022-10-31T08:31:35;63.60;;;21.23;;
20758;SDS011;10539;53.686;9.158;2022-10-31T08:34:01;98.30;;;23.53;;
20758;SDS011;10539;53.686;9.158;2022-10-31T08:36:27;83.50;;;22.20;;
20758;SDS011;10539;53.686;9.158;2022-10-31T08:38:54;109.27;;;23.70;;
20758;SDS011;10539;53.686;9.158;2022-10-31T08:41:20;68.70;;;22.80;;
20758;SDS011;10539;53.686;9.158;2022-10-31T08:43:46;91.73;;;22.07;;
20758;SDS011;10539;53.686;9.158;2022-10-31T08:46:12;108.47;;;23.87;;
20758;SDS011;10539;53.686;9.158;2022-10-31T08:48:38;88.80;;;22.57;;
20758;SDS011;10539;53.686;9.158;2022-10-31T08:51:04;55.80;;;20.53;;
20758;SDS011;10539;53.686;9.158;2022-10-31T08:53:30;78.63;;;22.40;;
20758;SDS011;10539;53.686;9.158;2022-10-31T08:55:56;79.63;;;22.73;;
20758;SDS011;10539;53.686;9.158;2022-10-31T08:58:22;95.13;;;23.00;;
20758;SDS011;10539;53.686;9.158;2022-10-31T09:00:50;97.23;;;23.27;;
20758;SDS011;10539;53.686;9.158;2022-10-31T09:03:21;130.30;;;23.73;;
20758;SDS011;10539;53.686;9.158;2022-10-31T09:05:55;140.23;;;22.63;;
20758;SDS011;10539;53.686;9.158;2022-10-31T09:08:25;101.97;;;22.63;;
20758;SDS011;10539;53.686;9.158;2022-10-31T09:10:51;109.80;;;21.87;;
20758;SDS011;10539;53.686;9.158;2022-10-31T09:13:18;81.27;;;22.73;;
20758;SDS011;10539;53.686;9.158;2022-10-31T09:15:45;116.90;;;22.83;;
20758;SDS011;10539;53.686;9.158;2022-10-31T09:18:13;193.33;;;23.33;;
20758;SDS011;10539;53.686;9.158;2022-10-31T09:20:40;195.50;;;23.77;;
20758;SDS011;10539;53.686;9.158;2022-10-31T09:25:39;169.90;;;21.83;;
20758;SDS011;10539;53.686;9.158;2022-10-31T09:28:05;136.17;;;21.67;;
20758;SDS011;10539;53.686;9.158;2022-10-31T09:30:33;238.73;;;24.80;;
20758;SDS011;10539;53.686;9.158;2022-10-31T09:33:04;129.03;;;21.10;;
20758;SDS011;10539;53.686;9.158;2022-10-31T09:35:31;101.17;;;21.57;;
20758;SDS011;10539;53.686;9.158;2022-10-31T09:37:58;179.80;;;21.57;;
20758;SDS011;10539;53.686;9.158;2022-10-31T09:40:47;156.27;;;22.13;;
20758;SDS011;10539;53.686;9.158;2022-10-31T09:48:43;240.83;;;23.47;;
20758;SDS011;10539;53.686;9.158;2022-10-31T09:51:27;105.40;;;21.47;;
20758;SDS011;10539;53.686;9.158;2022-10-31T09:56:46;201.40;;;20.97;;
20758;SDS011;10539;53.686;9.158;2022-10-31T09:59:18;189.80;;;21.20;;
20758;SDS011;10539;53.686;9.158;2022-10-31T10:04:54;56.00;;;19.30;;
20758;SDS011;10539;53.686;9.158;2022-10-31T10:07:49;171.20;;;23.10;;
20758;SDS011;10539;53.686;9.158;2022-10-31T10:10:50;196.60;;;22.07;;
20758;SDS011;10539;53.686;9.158;2022-10-31T10:30:32;26.43;;;17.17;;
20758;SDS011;10539;53.686;9.158;2022-10-31T10:33:05;27.10;;;16.53;;
20758;SDS011;10539;53.686;9.158;2022-10-31T10:35:38;32.47;;;16.60;;
20758;SDS011;10539;53.686;9.158;2022-10-31T10:38:16;26.50;;;17.27;;
20758;SDS011;10539;53.686;9.158;2022-10-31T10:40:42;26.80;;;16.83;;
20758;SDS011;10539;53.686;9.158;2022-10-31T10:43:22;29.57;;;17.73;;
20758;SDS011;10539;53.686;9.158;2022-10-31T10:46:17;38.77;;;20.47;;
20758;SDS011;10539;53.686;9.158;2022-10-31T10:59:48;38.17;;;16.83;;
20758;SDS011;10539;53.686;9.158;2022-10-31T11:02:18;34.17;;;16.37;;
20758;SDS011;10539;53.686;9.158;2022-10-31T11:04:51;35.43;;;16.37;;
20758;SDS011;10539;53.686;9.158;2022-10-31T11:07:21;30.03;;;14.27;;
20758;SDS011;10539;53.686;9.158;2022-10-31T11:09:47;30.07;;;15.80;;
20758;SDS011;10539;53.686;9.158;2022-10-31T11:12:19;29.43;;;15.00;;
20758;SDS011;10539;53.686;9.158;2022-10-31T11:14:53;31.40;;;14.83;;
20758;SDS011;10539;53.686;9.158;2022-10-31T11:17:31;30.27;;;15.20;;
20758;SDS011;10539;53.686;9.158;2022-10-31T11:20:16;26.60;;;14.77;;
20758;SDS011;10539;53.686;9.158;2022-10-31T11:22:55;30.43;;;15.23;;
20758;SDS011;10539;53.686;9.158;2022-10-31T11:25:30;27.60;;;13.87;;
20758;SDS011;10539;53.686;9.158;2022-10-31T11:28:00;27.13;;;14.17;;
20758;SDS011;10539;53.686;9.158;2022-10-31T11:30:26;30.40;;;14.10;;
20758;SDS011;10539;53.686;9.158;2022-10-31T11:32:52;29.07;;;14.37;;
20758;SDS011;10539;53.686;9.158;2022-10-31T11:35:19;26.53;;;13.10;;
20758;SDS011;10539;53.686;9.158;2022-10-31T11:37:48;22.17;;;12.37;;
20758;SDS011;10539;53.686;9.158;2022-10-31T11:40:17;26.40;;;13.33;;
20758;SDS011;10539;53.686;9.158;2022-10-31T11:42:45;30.83;;;14.60;;
20758;SDS011;10539;53.686;9.158;2022-10-31T11:47:43;23.07;;;12.23;;
20758;SDS011;10539;53.686;9.158;2022-10-31T11:50:17;23.57;;;11.90;;
20758;SDS011;10539;53.686;9.158;2022-10-31T11:52:45;31.90;;;13.17;;
20758;SDS011;10539;53.686;9.158;2022-10-31T11:57:47;20.87;;;11.73;;
20758;SDS011;10539;53.686;9.158;2022-10-31T12:00:37;23.67;;;11.50;;
20758;SDS011;10539;53.686;9.158;2022-10-31T12:03:14;26.93;;;10.93;;
20758;SDS011;10539;53.686;9.158;2022-10-31T12:05:47;24.20;;;10.70;;
20758;SDS011;10539;53.686;9.158;2022-10-31T12:08:37;22.30;;;11.37;;
20758;SDS011;10539;53.686;9.158;2022-10-31T12:11:11;21.87;;;10.70;;
20758;SDS011;10539;53.686;9.158;2022-10-31T12:17:11;27.00;;;11.90;;
20758;SDS011;10539;53.686;9.158;2022-10-31T12:22:41;26.67;;;11.97;;
20758;SDS011;10539;53.686;9.158;2022-10-31T12:39:05;18.67;;;9.50;;
20758;SDS011;10539;53.686;9.158;2022-10-31T12:47:31;19.43;;;10.80;;
20758;SDS011;10539;53.686;9.158;2022-10-31T12:56:12;20.73;;;11.37;;
20758;SDS011;10539;53.686;9.158;2022-10-31T12:58:45;16.57;;;9.67;;
20758;SDS011;10539;53.686;9.158;2022-10-31T13:01:18;18.10;;;8.63;;
20758;SDS011;10539;53.686;9.158;2022-10-31T13:03:53;17.37;;;9.50;;
20758;SDS011;10539;53.686;9.158;2022-10-31T13:06:27;23.73;;;9.13;;
20758;SDS011;10539;53.686;9.158;2022-10-31T13:09:00;17.73;;;9.40;;
20758;SDS011;10539;53.686;9.158;2022-10-31T13:11:29;18.23;;;9.23;;
20758;SDS011;10539;53.686;9.158;2022-10-31T13:14:07;19.63;;;9.87;;
20758;SDS011;10539;53.686;9.158;2022-10-31T13:16:48;20.00;;;9.17;;
20758;SDS011;10539;53.686;9.158;2022-10-31T13:19:19;17.63;;;9.63;;
20758;SDS011;10539;53.686;9.158;2022-10-31T13:22:00;19.77;;;10.07;;
20758;SDS011;10539;53.686;9.158;2022-10-31T13:27:41;19.07;;;8.47;;
20758;SDS011;10539;53.686;9.158;2022-10-31T13:30:26;16.60;;;8.13;;
20758;SDS011;10539;53.686;9.158;2022-10-31T13:32:59;17.63;;;8.53;;
20758;SDS011;10539;53.686;9.158;2022-10-31T13:35:59;18.57;;;9.23;;
20758;SDS011;10539;53.686;9.158;2022-10-31T13:46:40;19.67;;;9.60;;
20758;SDS011;10539;53.686;9.158;2022-10-31T13:51:51;19.13;;;9.10;;
20758;SDS011;10539;53.686;9.158;2022-10-31T13:54:23;23.63;;;10.07;;
20758;SDS011;10539;53.686;9.158;2022-10-31T13:56:56;21.97;;;9.67;;
20758;SDS011;10539;53.686;9.158;2022-10-31T13:59:23;25.50;;;12.07;;
20758;SDS011;10539;53.686;9.158;2022-10-31T14:04:24;24.13;;;11.00;;
20758;SDS011;10539;53.686;9.158;2022-10-31T14:07:09;22.37;;;10.33;;
20758;SDS011;10539;53.686;9.158;2022-10-31T14:09:38;23.27;;;11.27;;
20758;SDS011;10539;53.686;9.158;2022-10-31T14:12:23;23.40;;;11.50;;
20758;SDS011;10539;53.686;9.158;2022-10-31T14:14:52;18.43;;;10.67;;
20758;SDS011;10539;53.686;9.158;2022-10-31T14:17:27;19.70;;;10.00;;
20758;SDS011;10539;53.686;9.158;2022-10-31T14:20:40;25.47;;;10.27;;
20758;SDS011;10539;53.686;9.158;2022-10-31T14:23:10;24.70;;;10.83;;
20758;SDS011;10539;53.686;9.158;2022-10-31T14:28:53;20.70;;;10.57;;
20758;SDS011;10539;53.686;9.158;2022-10-31T14:31:26;18.87;;;10.43;;
20758;SDS011;10539;53.686;9.158;2022-10-31T14:39:50;21.57;;;11.87;;
20758;SDS011;10539;53.686;9.158;2022-10-31T14:50:51;19.37;;;11.00;;
20758;SDS011;10539;53.686;9.158;2022-10-31T14:53:35;20.20;;;10.57;;
20758;SDS011;10539;53.686;9.158;2022-10-31T14:56:09;17.83;;;10.70;;
20758;SDS011;10539;53.686;9.158;2022-10-31T14:58:40;23.33;;;11.80;;
20758;SDS011;10539;53.686;9.158;2022-10-31T15:01:18;27.10;;;14.90;;
20758;SDS011;10539;53.686;9.158;2022-10-31T15:03:52;29.77;;;16.07;;
20758;SDS011;10539;53.686;9.158;2022-10-31T15:06:20;22.43;;;12.13;;
20758;SDS011;10539;53.686;9.158;2022-10-31T15:08:52;22.27;;;11.53;;
20758;SDS011;10539;53.686;9.158;2022-10-31T15:11:21;23.20;;;12.20;;
20758;SDS011;10539;53.686;9.158;2022-10-31T15:13:50;23.07;;;12.10;;
20758;SDS011;10539;53.686;9.158;2022-10-31T15:16:18;23.00;;;12.53;;
20758;SDS011;10539;53.686;9.158;2022-10-31T15:18:56;24.60;;;12.07;;
20758;SDS011;10539;53.686;9.158;2022-10-31T15:21:25;23.47;;;12.13;;
20758;SDS011;10539;53.686;9.158;2022-10-31T15:23:54;24.20;;;12.57;;
20758;SDS011;10539;53.686;9.158;2022-10-31T15:26:22;23.03;;;12.53;;
20758;SDS011;10539;53.686;9.158;2022-10-31T15:29:02;20.67;;;12.03;;
20758;SDS011;10539;53.686;9.158;2022-10-31T15:31:37;21.97;;;11.83;;
20758;SDS011;10539;53.686;9.158;2022-10-31T15:34:04;22.03;;;11.90;;
20758;SDS011;10539;53.686;9.158;2022-10-31T15:36:37;27.87;;;14.07;;
20758;SDS011;10539;53.686;9.158;2022-10-31T15:39:02;27.90;;;14.00;;
20758;SDS011;10539;53.686;9.158;2022-10-31T15:41:35;28.47;;;13.87;;
20758;SDS011;10539;53.686;9.158;2022-10-31T15:44:04;24.43;;;12.57;;
20758;SDS011;10539;53.686;9.158;2022-10-31T15:46:51;26.63;;;13.50;;
20758;SDS011;10539;53.686;9.158;2022-10-31T15:49:33;26.07;;;12.60;;
20758;SDS011;10539;53.686;9.158;2022-10-31T15:52:10;28.00;;;14.30;;
20758;SDS011;10539;53.686;9.158;2022-10-31T15:54:41;30.13;;;13.07;;
20758;SDS011;10539;53.686;9.158;2022-10-31T15:57:16;26.53;;;13.90;;
20758;SDS011;10539;53.686;9.158;2022-10-31T15:59:44;30.97;;;14.53;;
20758;SDS011;10539;53.686;9.158;2022-10-31T16:02:12;26.93;;;13.53;;
20758;SDS011;10539;53.686;9.158;2022-10-31T16:04:49;29.40;;;13.97;;
20758;SDS011;10539;53.686;9.158;2022-10-31T16:07:22;30.43;;;16.00;;
20758;SDS011;10539;53.686;9.158;2022-10-31T16:09:58;32.73;;;13.73;;
20758;SDS011;10539;53.686;9.158;2022-10-31T16:12:29;28.33;;;13.90;;
20758;SDS011;10539;53.686;9.158;2022-10-31T16:15:00;29.67;;;14.53;;
20758;SDS011;10539;53.686;9.158;2022-10-31T16:17:27;34.80;;;16.13;;
20758;SDS011;10539;53.686;9.158;2022-10-31T16:19:57;32.40;;;17.40;;
20758;SDS011;10539;53.686;9.158;2022-10-31T16:22:35;31.90;;;15.63;;
20758;SDS011;10539;53.686;9.158;2022-10-31T16:27:40;32.70;;;15.60;;
20758;SDS011;10539;53.686;9.158;2022-10-31T16:35:54;34.40;;;15.57;;
20758;SDS011;10539;53.686;9.158;2022-10-31T16:38:21;35.40;;;16.33;;
20758;SDS011;10539;53.686;9.158;2022-10-31T16:40:47;37.30;;;18.03;;
20758;SDS011;10539;53.686;9.158;2022-10-31T16:43:14;38.30;;;18.83;;
20758;SDS011;10539;53.686;9.158;2022-10-31T16:45:46;32.57;;;16.40;;
20758;SDS011;10539;53.686;9.158;2022-10-31T16:48:17;39.20;;;17.93;;
20758;SDS011;10539;53.686;9.158;2022-10-31T16:50:46;42.60;;;19.27;;
20758;SDS011;10539;53.686;9.158;2022-10-31T16:53:12;43.97;;;21.53;;
20758;SDS011;10539;53.686;9.158;2022-10-31T16:55:42;38.03;;;19.53;;
20758;SDS011;10539;53.686;9.158;2022-10-31T16:58:18;41.73;;;19.97;;
20758;SDS011;10539;53.686;9.158;2022-10-31T17:00:51;41.67;;;19.93;;
20758;SDS011;10539;53.686;9.158;2022-10-31T17:03:17;49.43;;;22.80;;
20758;SDS011;10539;53.686;9.158;2022-10-31T17:05:43;45.47;;;20.03;;
20758;SDS011;10539;53.686;9.158;2022-10-31T17:08:09;46.10;;;20.43;;
20758;SDS011;10539;53.686;9.158;2022-10-31T17:10:35;44.53;;;20.70;;
20758;SDS011;10539;53.686;9.158;2022-10-31T17:13:02;45.17;;;20.37;;
20758;SDS011;10539;53.686;9.158;2022-10-31T17:15:33;49.03;;;22.23;;
20758;SDS011;10539;53.686;9.158;2022-10-31T17:18:04;46.37;;;20.77;;
20758;SDS011;10539;53.686;9.158;2022-10-31T17:20:30;51.13;;;23.50;;
20758;SDS011;10539;53.686;9.158;2022-10-31T17:22:57;54.67;;;21.53;;